createdAt,value
2018-05-03T00:01:06.052Z,5.17
2018-05-03T00:03:37.171Z,3.97
2018-05-03T00:06:07.474Z,5.30
2018-05-03T00:09:00.009Z,7.03
2018-05-03T00:11:30.344Z,3.27
2018-05-03T00:14:00.643Z,7.10
2018-05-03T00:16:31.013Z,5.50
2018-05-03T00:19:01.354Z,7.90
2018-05-03T00:21:31.704Z,6.17
2018-05-03T00:24:02.861Z,3.00
2018-05-03T00:26:33.209Z,7.33
2018-05-03T00:29:07.671Z,5.80
2018-05-03T00:31:38.006Z,7.23
2018-05-03T00:34:08.347Z,3.97
2018-05-03T00:36:39.480Z,4.47
2018-05-03T00:39:09.827Z,5.20
2018-05-03T00:41:40.180Z,7.07
2018-05-03T00:44:10.542Z,3.87
2018-05-03T00:46:40.846Z,5.03
2018-05-03T00:49:33.375Z,4.73
2018-05-03T00:52:03.725Z,4.17
2018-05-03T00:54:49.365Z,4.13
2018-05-03T00:57:19.677Z,4.30
2018-05-03T00:59:50.777Z,5.90
2018-05-03T01:02:21.145Z,10.30
2018-05-03T01:04:51.499Z,3.77
2018-05-03T01:07:25.926Z,5.00
2018-05-03T01:10:00.391Z,10.00
2018-05-03T01:12:30.727Z,6.53
2018-05-03T01:15:01.819Z,7.77
2018-05-03T01:17:39.522Z,3.83
2018-05-03T01:20:12.936Z,7.33
2018-05-03T01:22:44.294Z,4.43
2018-05-03T01:25:14.651Z,5.10
2018-05-03T01:27:45.813Z,5.40
2018-05-03T01:30:16.079Z,4.60
2018-05-03T01:32:46.452Z,7.53
2018-05-03T01:36:11.627Z,4.93
2018-05-03T01:38:41.993Z,5.43
2018-05-03T01:41:12.540Z,5.97
2018-05-03T01:43:42.871Z,5.23
2018-05-03T01:46:13.200Z,6.20
2018-05-03T01:48:50.855Z,4.13
2018-05-03T01:51:21.195Z,7.67
2018-05-03T01:53:52.302Z,5.27
2018-05-03T01:56:22.634Z,4.93
2018-05-03T01:58:53.734Z,6.40
2018-05-03T02:01:45.233Z,3.27
2018-05-03T02:04:15.607Z,5.67
2018-05-03T02:06:45.936Z,8.87
2018-05-03T02:09:16.262Z,3.50
2018-05-03T02:11:46.628Z,8.13
2018-05-03T02:14:16.958Z,5.23
2018-05-03T02:16:47.291Z,6.87
2018-05-03T02:19:17.666Z,4.93
2018-05-03T02:21:48.020Z,7.70
2018-05-03T02:24:19.120Z,6.57
2018-05-03T02:26:49.474Z,6.67
2018-05-03T02:29:20.570Z,6.20
2018-05-03T02:31:50.923Z,5.93
2018-05-03T02:34:21.278Z,8.73
2018-05-03T02:36:52.377Z,7.63
2018-05-03T02:39:22.702Z,5.50
2018-05-03T02:41:53.064Z,10.03
2018-05-03T02:44:24.160Z,7.47
2018-05-03T02:47:00.663Z,6.73
2018-05-03T02:49:31.003Z,8.47
2018-05-03T02:52:01.297Z,9.30
2018-05-03T02:54:31.654Z,7.73
2018-05-03T02:58:15.944Z,5.80
2018-05-03T03:01:59.121Z,4.43
2018-05-03T03:05:42.577Z,7.93
2018-05-03T03:08:39.963Z,7.17
2018-05-03T03:15:45.148Z,10.07
2018-05-03T03:19:28.758Z,12.43
2018-05-03T03:23:13.188Z,7.07
2018-05-03T03:26:16.307Z,7.50
2018-05-03T03:29:44.255Z,7.50
2018-05-03T03:33:05.499Z,8.00
2018-05-03T03:35:35.861Z,7.27
2018-05-03T03:39:00.697Z,7.40
2018-05-03T03:41:39.949Z,11.43
2018-05-03T03:44:46.082Z,8.80
2018-05-03T03:47:22.591Z,10.33
2018-05-03T03:49:52.922Z,11.37
2018-05-03T03:52:23.255Z,10.67
2018-05-03T03:54:54.374Z,10.57
2018-05-03T03:57:24.706Z,7.93
2018-05-03T03:59:55.051Z,9.83
2018-05-03T04:02:28.222Z,9.73
2018-05-03T04:04:58.556Z,8.77
2018-05-03T04:07:28.895Z,10.73
2018-05-03T04:10:00.017Z,10.57
2018-05-03T04:12:30.368Z,10.30
2018-05-03T04:15:01.477Z,11.83
2018-05-03T04:18:26.497Z,9.07
2018-05-03T04:21:51.427Z,9.47
2018-05-03T04:25:17.153Z,9.63
2018-05-03T04:27:47.499Z,10.90
2018-05-03T04:30:17.833Z,14.40
2018-05-03T04:32:48.215Z,11.27
2018-05-03T04:35:19.311Z,8.67
2018-05-03T04:38:10.060Z,10.03
2018-05-03T04:40:41.168Z,9.30
2018-05-03T04:43:18.691Z,9.53
2018-05-03T04:45:49.022Z,7.50
2018-05-03T04:48:19.357Z,12.23
2018-05-03T04:50:50.472Z,12.53
2018-05-03T04:53:20.809Z,9.40
2018-05-03T04:55:51.150Z,11.13
2018-05-03T04:58:21.764Z,11.57
2018-05-03T05:00:54.099Z,11.30
2018-05-03T05:03:32.667Z,12.67
2018-05-03T05:06:03.026Z,12.87
2018-05-03T05:08:33.383Z,11.13
2018-05-03T05:11:03.739Z,12.40
2018-05-03T05:13:34.070Z,9.50
2018-05-03T05:16:05.169Z,11.87
2018-05-03T05:18:35.541Z,10.90
2018-05-03T05:21:06.635Z,10.40
2018-05-03T05:23:36.980Z,11.97
2018-05-03T05:26:07.350Z,8.27
2018-05-03T05:28:38.470Z,11.57
2018-05-03T05:31:08.804Z,11.90
2018-05-03T05:33:40.163Z,8.57
2018-05-03T05:36:11.233Z,10.13
2018-05-03T05:38:41.588Z,12.80
2018-05-03T05:41:31.039Z,9.43
2018-05-03T05:44:03.431Z,9.93
2018-05-03T05:46:33.764Z,11.40
2018-05-03T05:49:04.122Z,10.30
2018-05-03T05:51:35.239Z,8.13
2018-05-03T05:54:05.566Z,7.30
2018-05-03T05:56:35.938Z,9.10
2018-05-03T05:59:06.231Z,12.07
2018-05-03T06:01:37.348Z,7.73
2018-05-03T06:04:07.704Z,10.20
2018-05-03T06:06:38.006Z,8.60
2018-05-03T06:09:08.340Z,10.00
2018-05-03T06:11:38.910Z,7.87
2018-05-03T06:14:09.255Z,7.20
2018-05-03T06:16:39.853Z,6.10
2018-05-03T06:19:10.984Z,7.83
2018-05-03T06:21:41.332Z,6.90
2018-05-03T06:24:11.673Z,10.20
2018-05-03T06:26:41.996Z,8.47
2018-05-03T06:29:13.106Z,11.10
2018-05-03T06:31:43.433Z,10.40
2018-05-03T06:34:15.615Z,8.30
2018-05-03T06:36:46.708Z,11.30
2018-05-03T06:39:17.050Z,8.53
2018-05-03T06:41:47.434Z,9.73
2018-05-03T06:44:19.815Z,7.77
2018-05-03T06:46:57.510Z,9.20
2018-05-03T06:49:33.984Z,10.23
2018-05-03T06:52:04.320Z,8.77
2018-05-03T06:54:34.684Z,6.00
2018-05-03T06:57:05.755Z,10.27
2018-05-03T06:59:36.110Z,6.27
2018-05-03T07:02:06.471Z,8.67
2018-05-03T07:04:36.781Z,12.93
2018-05-03T07:07:07.115Z,7.77
2018-05-03T07:09:38.252Z,12.23
2018-05-03T07:12:08.597Z,7.63
2018-05-03T07:14:40.689Z,10.07
2018-05-03T07:17:11.052Z,10.87
2018-05-03T07:19:41.391Z,10.67
2018-05-03T07:22:11.728Z,10.53
2018-05-03T07:24:42.087Z,8.93
2018-05-03T07:27:12.428Z,7.97
2018-05-03T07:32:32.428Z,8.73
2018-05-03T07:35:02.769Z,8.90
2018-05-03T07:37:38.242Z,6.07
2018-05-03T07:40:09.596Z,8.83
2018-05-03T07:42:39.952Z,7.60
2018-05-03T07:45:11.071Z,9.87
2018-05-03T07:47:41.372Z,8.80
2018-05-03T07:50:11.715Z,9.33
2018-05-03T07:52:42.087Z,8.83
2018-05-03T07:55:12.440Z,5.83
2018-05-03T07:57:42.796Z,9.63
2018-05-03T08:00:14.168Z,8.73
2018-05-03T08:02:45.269Z,9.37
2018-05-03T08:05:15.616Z,9.87
2018-05-03T08:07:45.999Z,13.47
2018-05-03T08:10:16.347Z,7.27
2018-05-03T08:13:07.854Z,7.47
2018-05-03T08:15:48.052Z,9.67
2018-05-03T08:18:18.380Z,8.10
2018-05-03T08:20:48.716Z,10.17
2018-05-03T08:23:19.052Z,8.73
2018-05-03T08:25:51.418Z,7.27
2018-05-03T08:28:22.528Z,8.00
2018-05-03T08:30:52.884Z,7.37
2018-05-03T08:33:24.045Z,6.97
2018-05-03T08:35:54.398Z,10.73
2018-05-03T08:38:44.141Z,8.93
2018-05-03T08:41:15.261Z,6.10
2018-05-03T08:43:45.607Z,11.97
2018-05-03T08:46:15.974Z,6.80
2018-05-03T08:48:52.468Z,6.97
2018-05-03T08:51:22.844Z,8.57
2018-05-03T08:53:53.175Z,5.80
2018-05-03T08:56:23.531Z,7.17
2018-05-03T08:58:55.955Z,6.37
2018-05-03T09:01:27.100Z,6.60
2018-05-03T09:03:57.432Z,6.20
2018-05-03T09:06:27.788Z,6.77
2018-05-03T09:08:58.145Z,5.13
2018-05-03T09:11:28.561Z,6.53
2018-05-03T09:13:59.632Z,6.13
2018-05-03T09:16:30.732Z,5.50
2018-05-03T09:19:05.159Z,4.43
2018-05-03T09:21:37.535Z,7.27
2018-05-03T09:24:08.656Z,5.73
2018-05-03T09:26:40.065Z,6.30
2018-05-03T09:29:11.162Z,3.50
2018-05-03T09:32:02.948Z,5.43
2018-05-03T09:34:34.054Z,6.27
2018-05-03T09:37:04.397Z,5.83
2018-05-03T09:39:34.769Z,6.73
2018-05-03T09:42:05.112Z,3.83
2018-05-03T09:44:41.630Z,2.73
2018-05-03T09:47:12.955Z,6.27
2018-05-03T09:49:43.254Z,5.87
2018-05-03T09:52:13.612Z,6.90
2018-05-03T09:54:43.945Z,5.33
2018-05-03T09:57:15.043Z,4.80
2018-05-03T10:00:07.613Z,5.53
2018-05-03T10:02:37.943Z,5.93
2018-05-03T10:05:08.276Z,5.87
2018-05-03T10:07:38.651Z,4.80
2018-05-03T10:10:09.004Z,7.43
2018-05-03T10:12:39.342Z,4.93
2018-05-03T10:15:09.716Z,4.77
2018-05-03T10:17:40.080Z,7.93
2018-05-03T10:20:11.459Z,4.87
2018-05-03T10:22:41.852Z,7.43
2018-05-03T10:25:33.666Z,4.57
2018-05-03T10:28:03.970Z,4.53
2018-05-03T10:30:34.309Z,5.77
2018-05-03T10:33:04.672Z,5.73
2018-05-03T10:35:35.034Z,5.90
2018-05-03T10:38:06.149Z,6.53
2018-05-03T10:40:36.497Z,4.87
2018-05-03T10:43:07.624Z,5.10
2018-05-03T10:45:38.982Z,6.23
2018-05-03T10:48:10.115Z,5.23
2018-05-03T10:50:40.472Z,5.30
2018-05-03T10:53:11.584Z,6.03
2018-05-03T10:55:41.915Z,7.33
2018-05-03T10:58:12.301Z,4.00
2018-05-03T11:00:42.642Z,3.50
2018-05-03T11:03:12.942Z,6.40
2018-05-03T11:05:47.408Z,3.40
2018-05-03T11:08:17.744Z,8.30
2018-05-03T11:10:48.813Z,8.97
2018-05-03T11:13:19.192Z,5.77
2018-05-03T11:15:49.535Z,4.57
2018-05-03T11:18:19.851Z,6.07
2018-05-03T11:20:50.231Z,6.50
2018-05-03T11:23:21.611Z,4.13
2018-05-03T11:25:52.050Z,4.30
2018-05-03T11:28:24.127Z,4.67
2018-05-03T11:30:54.459Z,4.77
2018-05-03T11:33:25.557Z,5.83
2018-05-03T11:36:17.341Z,4.23
2018-05-03T11:38:48.454Z,3.63
2018-05-03T11:41:18.809Z,6.17
2018-05-03T11:43:51.496Z,6.50
2018-05-03T11:49:06.216Z,7.13
2018-05-03T11:51:43.708Z,5.83
2018-05-03T11:54:20.236Z,6.87
2018-05-03T11:56:51.353Z,4.40
2018-05-03T11:59:21.735Z,4.07
2018-05-03T12:01:52.826Z,5.43
2018-05-03T12:04:23.185Z,4.07
2018-05-03T12:06:53.526Z,6.13
2018-05-03T12:09:23.882Z,3.90
2018-05-03T12:11:54.220Z,7.57
2018-05-03T12:14:24.556Z,3.50
2018-05-03T12:16:54.915Z,6.10
2018-05-03T12:19:25.254Z,4.40
2018-05-03T12:21:55.625Z,4.77
2018-05-03T12:24:33.120Z,4.23
2018-05-03T12:27:03.455Z,3.80
2018-05-03T12:29:34.561Z,3.93
2018-05-03T12:32:25.300Z,5.43
2018-05-03T12:34:56.681Z,3.17
2018-05-03T12:37:27.772Z,3.50
2018-05-03T12:39:58.169Z,5.00
2018-05-03T12:42:30.519Z,4.67
2018-05-03T12:45:00.876Z,5.83
2018-05-03T12:47:51.599Z,4.43
2018-05-03T12:50:21.931Z,2.37
2018-05-03T12:52:52.271Z,3.57
2018-05-03T12:55:23.400Z,4.30
2018-05-03T12:57:53.736Z,3.70
2018-05-03T13:00:24.080Z,4.73
2018-05-03T13:02:55.243Z,5.57
2018-05-03T13:05:25.592Z,4.27
2018-05-03T13:07:56.144Z,4.83
2018-05-03T13:10:26.522Z,4.70
2018-05-03T13:12:56.877Z,4.43
2018-05-03T13:15:47.377Z,4.97
2018-05-03T13:18:17.731Z,7.37
2018-05-03T13:20:48.083Z,6.27
2018-05-03T13:23:19.213Z,4.50
2018-05-03T13:25:50.309Z,4.43
2018-05-03T13:28:40.809Z,5.17
2018-05-03T13:31:33.338Z,5.43
2018-05-03T13:34:03.707Z,3.77
2018-05-03T13:36:34.271Z,3.50
2018-05-03T13:39:04.639Z,6.73
2018-05-03T13:41:42.164Z,4.00
2018-05-03T13:44:12.497Z,7.47
2018-05-03T13:46:42.854Z,5.17
2018-05-03T13:49:13.179Z,6.30
2018-05-03T13:51:43.509Z,5.40
2018-05-03T13:54:13.869Z,2.87
2018-05-03T13:56:44.242Z,3.03
2018-05-03T13:59:14.575Z,3.67
2018-05-03T14:01:44.884Z,6.70
2018-05-03T14:04:15.215Z,6.10
2018-05-03T14:06:46.323Z,5.17
2018-05-03T14:09:16.672Z,5.07
2018-05-03T14:11:47.040Z,3.13
2018-05-03T14:14:19.427Z,5.27
2018-05-03T14:17:11.943Z,5.37
2018-05-03T14:19:42.282Z,3.20
2018-05-03T14:22:12.621Z,3.13
2018-05-03T14:24:42.988Z,6.90
2018-05-03T14:27:13.417Z,3.63
2018-05-03T14:29:44.455Z,4.07
2018-05-03T14:32:14.817Z,4.57
2018-05-03T14:34:45.149Z,3.30
2018-05-03T14:37:15.480Z,2.53
2018-05-03T14:39:45.841Z,3.47
2018-05-03T14:42:16.175Z,3.33
2018-05-03T14:44:46.501Z,3.67
2018-05-03T14:47:16.884Z,2.60
2018-05-03T14:49:47.216Z,5.47
2018-05-03T14:52:17.551Z,6.10
2018-05-03T14:55:09.406Z,2.97
2018-05-03T14:57:39.687Z,4.47
2018-05-03T15:00:10.037Z,4.83
2018-05-03T15:02:40.411Z,4.00
2018-05-03T15:05:11.512Z,4.57
2018-05-03T15:07:41.818Z,4.73
2018-05-03T15:10:34.413Z,3.13
2018-05-03T15:13:23.797Z,4.20
2018-05-03T15:15:54.943Z,4.27
2018-05-03T15:18:26.102Z,5.60
2018-05-03T15:20:56.398Z,6.23
2018-05-03T15:23:28.567Z,5.40
2018-05-03T15:25:59.636Z,3.70
2018-05-03T15:28:29.988Z,3.73
2018-05-03T15:31:21.738Z,3.17
2018-05-03T15:33:52.155Z,3.00
2018-05-03T15:36:22.410Z,3.10
2018-05-03T15:38:53.548Z,2.97
2018-05-03T15:41:23.883Z,5.97
2018-05-03T15:43:54.982Z,3.43
2018-05-03T15:46:27.413Z,2.83
2018-05-03T15:48:58.537Z,8.43
2018-05-03T15:51:29.640Z,5.10
2018-05-03T15:53:59.996Z,3.17
2018-05-03T15:56:30.337Z,4.20
2018-05-03T15:59:00.668Z,3.43
2018-05-03T16:04:15.984Z,5.63
2018-05-03T16:06:46.340Z,4.33
2018-05-03T16:09:21.788Z,2.93
2018-05-03T16:11:52.166Z,4.30
2018-05-03T16:14:23.397Z,2.83
2018-05-03T16:16:53.615Z,2.90
2018-05-03T16:19:23.997Z,4.07
2018-05-03T16:22:15.491Z,3.50
2018-05-03T16:24:45.869Z,4.87
2018-05-03T16:27:16.240Z,4.33
2018-05-03T16:29:46.540Z,6.67
2018-05-03T16:32:18.964Z,4.53
2018-05-03T16:34:49.299Z,4.13
2018-05-03T16:37:19.631Z,2.70
2018-05-03T16:39:49.992Z,2.60
2018-05-03T16:42:21.091Z,7.10
2018-05-03T16:45:11.854Z,4.30
2018-05-03T16:47:42.952Z,6.43
2018-05-03T16:50:13.308Z,3.70
2018-05-03T16:52:44.466Z,2.53
2018-05-03T16:55:15.567Z,3.50
2018-05-03T16:57:45.904Z,3.17
2018-05-03T17:00:16.258Z,2.50
2018-05-03T17:02:47.376Z,3.73
2018-05-03T17:05:17.713Z,3.53
2018-05-03T17:07:48.854Z,3.13
2018-05-03T17:10:19.979Z,6.47
2018-05-03T17:12:50.315Z,3.50
2018-05-03T17:15:20.692Z,7.37
2018-05-03T17:17:51.027Z,5.47
2018-05-03T17:20:21.362Z,3.47
2018-05-03T17:23:13.132Z,3.10
2018-05-03T17:25:44.228Z,4.50
2018-05-03T17:28:14.561Z,4.67
2018-05-03T17:30:51.056Z,2.50
2018-05-03T17:33:21.358Z,6.33
2018-05-03T17:35:53.732Z,3.97
2018-05-03T17:38:24.090Z,5.90
2018-05-03T17:40:56.462Z,4.20
2018-05-03T17:43:27.787Z,4.97
2018-05-03T17:45:58.270Z,6.00
2018-05-03T17:48:28.562Z,4.87
2018-05-03T17:50:58.890Z,3.10
2018-05-03T17:53:30.044Z,5.47
2018-05-03T17:56:01.391Z,4.03
2018-05-03T17:58:31.743Z,8.23
2018-05-03T18:01:02.127Z,6.37
2018-05-03T18:03:32.429Z,8.33
2018-05-03T18:06:03.800Z,5.03
2018-05-03T18:08:34.183Z,2.83
2018-05-03T18:11:04.480Z,4.20
2018-05-03T18:13:35.624Z,4.23
2018-05-03T18:16:05.943Z,3.23
2018-05-03T18:18:36.264Z,4.67
2018-05-03T18:21:07.383Z,4.30
2018-05-03T18:23:37.770Z,3.70
2018-05-03T18:26:08.124Z,3.57
2018-05-03T18:28:59.888Z,7.20
2018-05-03T18:31:31.011Z,5.77
2018-05-03T18:34:01.345Z,2.90
2018-05-03T18:36:32.468Z,4.20
2018-05-03T18:39:03.837Z,4.00
2018-05-03T18:41:34.221Z,3.43
2018-05-03T18:44:04.637Z,2.43
2018-05-03T18:46:34.905Z,2.63
2018-05-03T18:49:05.195Z,2.47
2018-05-03T18:51:42.742Z,2.97
2018-05-03T18:54:13.867Z,2.63
2018-05-03T18:56:45.230Z,2.17
2018-05-03T18:59:15.613Z,3.73
2018-05-03T19:01:45.978Z,4.13
2018-05-03T19:04:17.085Z,3.77
2018-05-03T19:07:08.887Z,3.67
2018-05-03T19:09:39.223Z,3.83
2018-05-03T19:12:09.582Z,3.17
2018-05-03T19:14:39.971Z,4.97
2018-05-03T19:17:11.333Z,4.50
2018-05-03T19:20:03.885Z,5.43
2018-05-03T19:22:41.554Z,2.43
2018-05-03T19:25:11.944Z,4.03
2018-05-03T19:27:42.292Z,3.73
2018-05-03T19:30:13.370Z,4.80
2018-05-03T19:32:51.363Z,3.93
2018-05-03T19:35:21.705Z,3.30
2018-05-03T19:37:59.255Z,2.93
2018-05-03T19:40:30.360Z,3.03
2018-05-03T19:43:00.664Z,4.13
2018-05-03T19:45:53.212Z,4.27
2018-05-03T19:48:25.601Z,4.93
2018-05-03T19:50:56.709Z,4.37
2018-05-03T19:53:27.049Z,4.67
2018-05-03T19:56:17.533Z,5.53
2018-05-03T19:58:47.903Z,4.50
2018-05-03T20:01:18.245Z,5.57
2018-05-03T20:03:49.377Z,4.77
2018-05-03T20:06:27.096Z,4.03
2018-05-03T20:08:59.230Z,3.87
2018-05-03T20:11:29.575Z,4.17
2018-05-03T20:13:59.958Z,2.50
2018-05-03T20:19:20.908Z,5.20
2018-05-03T20:21:52.268Z,4.73
2018-05-03T20:24:22.572Z,3.03
2018-05-03T20:26:52.942Z,4.57
2018-05-03T20:29:24.051Z,5.70
2018-05-03T20:31:54.391Z,5.37
2018-05-03T20:34:24.724Z,3.60
2018-05-03T20:36:55.076Z,4.23
2018-05-03T20:39:25.413Z,3.77
2018-05-03T20:41:55.776Z,3.33
2018-05-03T20:44:26.124Z,5.13
2018-05-03T20:46:56.470Z,5.10
2018-05-03T20:49:27.613Z,5.90
2018-05-03T20:51:58.053Z,5.73
2018-05-03T20:54:30.356Z,4.37
2018-05-03T20:57:00.751Z,3.93
2018-05-03T20:59:31.099Z,3.33
2018-05-03T21:02:03.504Z,5.93
2018-05-03T21:04:33.889Z,6.77
2018-05-03T21:07:06.343Z,4.73
2018-05-03T21:09:57.798Z,7.80
2018-05-03T21:12:28.133Z,4.33
2018-05-03T21:15:05.671Z,7.13
2018-05-03T21:17:36.774Z,3.73
2018-05-03T21:20:07.132Z,4.60
2018-05-03T21:22:38.488Z,2.77
2018-05-03T21:25:09.614Z,3.93
2018-05-03T21:27:40.994Z,3.03
2018-05-03T21:30:12.438Z,5.07
2018-05-03T21:32:42.775Z,4.13
2018-05-03T21:35:13.108Z,2.67
2018-05-03T21:37:43.441Z,4.83
2018-05-03T21:40:13.777Z,5.70
2018-05-03T21:43:02.478Z,4.17
2018-05-03T21:45:32.816Z,4.13
2018-05-03T21:48:03.153Z,5.13
2018-05-03T21:50:34.292Z,3.60
2018-05-03T21:53:05.419Z,3.63
2018-05-03T21:55:36.533Z,4.83
2018-05-03T21:58:06.896Z,5.77
2018-05-03T22:00:38.002Z,4.20
2018-05-03T22:03:08.338Z,2.83
2018-05-03T22:05:38.711Z,4.20
2018-05-03T22:08:09.072Z,4.47
2018-05-03T22:10:43.488Z,6.93
2018-05-03T22:13:34.260Z,5.90
2018-05-03T22:16:04.596Z,4.83
2018-05-03T22:18:34.937Z,4.27
2018-05-03T22:21:15.267Z,3.67
2018-05-03T22:23:45.604Z,6.37
2018-05-03T22:26:15.946Z,3.37
2018-05-03T22:28:53.480Z,6.03
2018-05-03T22:31:23.838Z,4.57
2018-05-03T22:33:54.177Z,4.90
2018-05-03T22:36:24.531Z,4.60
2018-05-03T22:39:15.257Z,3.77
2018-05-03T22:41:45.636Z,4.07
2018-05-03T22:44:17.022Z,4.17
2018-05-03T22:46:47.390Z,4.67
2018-05-03T22:49:20.395Z,4.67
2018-05-03T22:51:50.948Z,5.20
2018-05-03T22:54:40.683Z,3.60
2018-05-03T22:57:11.802Z,6.23
2018-05-03T22:59:45.058Z,4.37
2018-05-03T23:02:19.513Z,5.77
2018-05-03T23:04:49.848Z,4.50
2018-05-03T23:07:20.189Z,3.60
2018-05-03T23:09:51.321Z,4.10
2018-05-03T23:12:21.661Z,4.80
2018-05-03T23:14:52.779Z,2.97
2018-05-03T23:17:23.150Z,5.50
2018-05-03T23:19:53.489Z,5.53
2018-05-03T23:22:26.902Z,4.40
2018-05-03T23:25:16.614Z,3.17
2018-05-03T23:27:46.924Z,5.93
2018-05-03T23:30:17.259Z,4.20
2018-05-03T23:32:47.619Z,5.20
2018-05-03T23:35:17.981Z,3.70
2018-05-03T23:37:48.338Z,3.27
2018-05-03T23:40:18.715Z,6.03
2018-05-03T23:42:49.093Z,3.70
2018-05-03T23:45:19.450Z,5.50
2018-05-03T23:47:49.832Z,5.40
2018-05-03T23:50:20.186Z,6.23
2018-05-03T23:52:50.545Z,5.67
2018-05-03T23:55:22.964Z,3.00
2018-05-03T23:57:53.316Z,2.50
